createdAt,value
2019-05-21T00:01:14.639Z,31.35
2019-05-21T00:03:43.242Z,32.53
2019-05-21T00:06:11.832Z,38.17
2019-05-21T00:08:40.422Z,32.85
2019-05-21T00:11:08.963Z,36.38
2019-05-21T00:13:38.689Z,33.42
2019-05-21T00:16:07.226Z,35.13
2019-05-21T00:18:39.194Z,35.20
2019-05-21T00:21:07.817Z,32.05
2019-05-21T00:23:36.404Z,34.20
2019-05-21T00:26:04.986Z,35.95
2019-05-21T00:28:36.996Z,31.27
2019-05-21T00:31:41.905Z,32.17
2019-05-21T00:34:46.499Z,34.67
2019-05-21T00:37:51.396Z,32.98
2019-05-21T00:40:56.116Z,33.65
2019-05-21T00:43:30.716Z,33.48
2019-05-21T00:45:59.362Z,32.30
2019-05-21T00:48:27.943Z,29.65
2019-05-21T00:50:56.551Z,29.70
2019-05-21T00:53:25.181Z,28.52
2019-05-21T00:55:53.747Z,29.23
2019-05-21T00:58:22.332Z,29.63
2019-05-21T01:00:51.303Z,30.12
2019-05-21T01:03:19.876Z,28.32
2019-05-21T01:05:48.473Z,27.30
2019-05-21T01:08:17.030Z,26.85
2019-05-21T01:10:45.518Z,25.20
2019-05-21T01:13:14.019Z,26.42
2019-05-21T01:15:42.503Z,26.65
2019-05-21T01:18:13.063Z,22.87
2019-05-21T01:20:41.620Z,25.55
2019-05-21T01:23:10.140Z,26.57
2019-05-21T01:25:41.449Z,27.60
2019-05-21T01:28:11.157Z,24.98
2019-05-21T01:30:39.772Z,26.93
2019-05-21T01:33:09.156Z,24.10
2019-05-21T01:35:37.788Z,23.18
2019-05-21T01:38:06.349Z,23.85
2019-05-21T01:40:34.819Z,21.82
2019-05-21T01:43:04.352Z,23.98
2019-05-21T01:45:32.890Z,25.20
2019-05-21T01:48:01.408Z,22.75
2019-05-21T01:50:30.007Z,25.27
2019-05-21T01:52:58.568Z,23.40
2019-05-21T01:55:27.169Z,24.12
2019-05-21T01:57:55.734Z,24.32
2019-05-21T02:00:24.293Z,27.62
2019-05-21T02:02:52.888Z,23.80
2019-05-21T02:05:32.702Z,24.05
2019-05-21T02:07:51.915Z,23.30
2019-05-21T02:10:20.423Z,23.02
2019-05-21T02:12:48.920Z,27.48
2019-05-21T02:15:17.565Z,24.27
2019-05-21T02:17:46.145Z,25.48
2019-05-21T02:20:14.972Z,25.00
2019-05-21T02:22:43.553Z,25.45
2019-05-21T02:25:12.759Z,24.43
2019-05-21T02:27:41.437Z,24.83
2019-05-21T02:30:11.788Z,24.00
2019-05-21T02:32:40.313Z,24.80
2019-05-21T02:35:08.863Z,25.97
2019-05-21T02:37:37.360Z,24.87
2019-05-21T02:40:06.060Z,25.02
2019-05-21T02:42:34.625Z,25.08
2019-05-21T02:45:03.346Z,27.82
2019-05-21T02:47:31.900Z,26.35
2019-05-21T02:50:00.520Z,26.42
2019-05-21T02:52:29.128Z,25.67
2019-05-21T02:54:57.718Z,28.12
2019-05-21T02:57:40.091Z,26.68
2019-05-21T03:00:24.343Z,25.52
2019-05-21T03:02:52.916Z,22.10
2019-05-21T03:05:21.381Z,22.30
2019-05-21T03:07:49.910Z,24.32
2019-05-21T03:10:19.005Z,28.00
2019-05-21T03:12:47.573Z,26.57
2019-05-21T03:15:16.193Z,24.37
2019-05-21T03:17:44.742Z,25.02
2019-05-21T03:20:13.525Z,25.70
2019-05-21T03:22:42.107Z,24.93
2019-05-21T03:25:10.829Z,28.27
2019-05-21T03:27:39.379Z,26.93
2019-05-21T03:30:09.720Z,29.02
2019-05-21T03:32:39.517Z,29.52
2019-05-21T03:35:10.223Z,28.87
2019-05-21T03:37:38.733Z,30.25
2019-05-21T03:40:08.019Z,33.55
2019-05-21T03:42:36.596Z,34.95
2019-05-21T03:45:08.585Z,35.60
2019-05-21T03:47:37.276Z,36.05
2019-05-21T03:50:06.354Z,32.30
2019-05-21T03:52:35.158Z,31.40
2019-05-21T03:55:04.193Z,32.38
2019-05-21T03:57:33.055Z,34.35
2019-05-21T04:00:02.738Z,33.20
2019-05-21T04:02:31.807Z,34.13
2019-05-21T04:05:00.705Z,29.85
2019-05-21T04:07:29.283Z,27.82
2019-05-21T04:09:58.544Z,32.20
2019-05-21T04:12:27.130Z,32.88
2019-05-21T04:14:57.388Z,29.40
2019-05-21T04:17:36.345Z,30.45
2019-05-21T04:20:06.401Z,26.20
2019-05-21T04:22:36.642Z,31.33
2019-05-21T04:25:06.377Z,29.18
2019-05-21T04:27:34.953Z,29.85
2019-05-21T04:30:04.739Z,32.05
2019-05-21T04:32:33.814Z,32.67
2019-05-21T04:35:02.655Z,40.92
2019-05-21T04:37:31.219Z,32.42
2019-05-21T04:40:00.950Z,34.40
2019-05-21T04:42:29.527Z,32.17
2019-05-21T04:45:00.491Z,32.17
2019-05-21T04:47:29.079Z,32.08
2019-05-21T04:52:30.418Z,31.90
2019-05-21T04:54:58.945Z,32.65
2019-05-21T04:57:27.533Z,38.78
2019-05-21T04:59:56.113Z,31.20
2019-05-21T05:02:24.689Z,32.53
2019-05-21T05:04:53.300Z,34.53
2019-05-21T05:07:28.233Z,30.02
2019-05-21T05:09:52.101Z,32.00
2019-05-21T05:12:20.604Z,25.90
2019-05-21T05:14:49.825Z,30.68
2019-05-21T05:17:18.386Z,27.52
2019-05-21T05:19:46.883Z,29.98
2019-05-21T05:22:15.375Z,32.15
2019-05-21T05:24:45.084Z,29.65
2019-05-21T05:27:13.579Z,34.33
2019-05-21T05:29:42.171Z,30.25
2019-05-21T05:32:10.768Z,29.98
2019-05-21T05:34:40.387Z,27.90
2019-05-21T05:37:08.964Z,31.37
2019-05-21T05:39:37.544Z,29.57
2019-05-21T05:42:06.026Z,32.15
2019-05-21T05:44:34.568Z,29.35
2019-05-21T05:47:04.111Z,26.68
2019-05-21T05:49:35.706Z,28.40
2019-05-21T05:52:04.308Z,30.90
2019-05-21T05:54:32.914Z,31.48
2019-05-21T05:57:01.459Z,29.42
2019-05-21T05:59:30.040Z,30.25
2019-05-21T06:01:58.609Z,31.60
2019-05-21T06:04:30.430Z,31.60
2019-05-21T06:06:57.383Z,38.85
2019-05-21T06:09:27.496Z,32.75
2019-05-21T06:11:56.096Z,33.50
2019-05-21T06:14:24.655Z,37.48
2019-05-21T06:16:53.266Z,32.67
2019-05-21T06:19:21.808Z,37.25
2019-05-21T06:21:50.343Z,44.73
2019-05-21T06:24:19.040Z,43.20
2019-05-21T06:26:47.629Z,43.68
2019-05-21T06:29:16.218Z,46.48
2019-05-21T06:31:45.765Z,46.13
2019-05-21T06:34:17.135Z,45.30
2019-05-21T06:36:45.871Z,46.40
2019-05-21T06:39:16.352Z,42.93
2019-05-21T06:41:45.551Z,33.75
2019-05-21T06:44:15.441Z,37.65
2019-05-21T06:46:45.952Z,44.70
2019-05-21T06:49:16.156Z,43.73
2019-05-21T06:51:44.855Z,46.18
2019-05-21T06:54:13.437Z,44.27
2019-05-21T06:56:42.033Z,51.02
2019-05-21T06:59:12.150Z,49.77
2019-05-21T07:01:52.635Z,51.80
2019-05-21T07:04:21.324Z,53.52
2019-05-21T07:06:51.459Z,52.08
2019-05-21T07:09:20.918Z,42.05
2019-05-21T07:11:50.058Z,39.67
2019-05-21T07:14:19.919Z,38.02
2019-05-21T07:16:50.118Z,43.40
2019-05-21T07:19:19.726Z,36.80
2019-05-21T07:21:49.212Z,39.92
2019-05-21T07:24:19.413Z,37.80
2019-05-21T07:26:49.655Z,57.27
2019-05-21T07:29:18.357Z,41.75
2019-05-21T07:31:46.927Z,41.70
2019-05-21T07:34:15.620Z,41.15
2019-05-21T07:36:44.544Z,41.02
2019-05-21T07:39:13.133Z,39.50
2019-05-21T07:41:44.307Z,38.28
2019-05-21T07:44:13.431Z,43.70
2019-05-21T07:46:43.624Z,38.98
2019-05-21T07:49:12.252Z,40.25
2019-05-21T07:51:42.355Z,44.18
2019-05-21T07:54:11.202Z,40.15
2019-05-21T07:56:39.798Z,38.30
2019-05-21T07:59:08.515Z,43.75
2019-05-21T08:01:38.659Z,39.33
2019-05-21T08:04:07.278Z,39.10
2019-05-21T08:06:35.851Z,42.00
2019-05-21T08:09:13.342Z,40.15
2019-05-21T08:11:38.673Z,40.98
2019-05-21T08:14:08.827Z,38.95
2019-05-21T08:16:37.395Z,38.07
2019-05-21T08:19:05.982Z,38.83
2019-05-21T08:21:34.491Z,42.80
2019-05-21T08:24:04.699Z,35.70
2019-05-21T08:26:33.366Z,36.30
2019-05-21T08:29:01.890Z,32.50
2019-05-21T08:31:31.086Z,35.00
2019-05-21T08:34:01.077Z,40.23
2019-05-21T08:36:29.685Z,37.50
2019-05-21T08:38:58.373Z,35.85
2019-05-21T08:41:29.771Z,34.50
2019-05-21T08:43:58.601Z,40.10
2019-05-21T08:46:27.188Z,39.30
2019-05-21T08:48:58.089Z,33.75
2019-05-21T08:51:26.670Z,36.42
2019-05-21T08:53:55.242Z,41.48
2019-05-21T08:56:26.315Z,36.75
2019-05-21T08:58:54.882Z,35.30
2019-05-21T09:01:23.549Z,37.30
2019-05-21T09:03:52.075Z,40.60
2019-05-21T09:06:20.729Z,55.58
2019-05-21T09:08:49.347Z,34.65
2019-05-21T09:11:17.898Z,37.17
2019-05-21T09:13:46.495Z,39.05
2019-05-21T09:16:15.079Z,37.20
2019-05-21T09:18:43.675Z,37.80
2019-05-21T09:21:13.943Z,38.92
2019-05-21T09:23:42.639Z,35.40
2019-05-21T09:26:11.228Z,34.23
2019-05-21T09:28:40.659Z,36.00
2019-05-21T09:31:09.319Z,34.73
2019-05-21T09:33:37.800Z,30.88
2019-05-21T09:36:06.315Z,34.80
2019-05-21T09:38:34.875Z,29.27
2019-05-21T09:41:03.475Z,30.75
2019-05-21T09:43:33.222Z,30.62
2019-05-21T09:46:01.790Z,27.67
2019-05-21T09:48:31.366Z,28.30
2019-05-21T09:50:59.918Z,30.00
2019-05-21T09:53:28.546Z,27.58
2019-05-21T09:55:58.740Z,29.40
2019-05-21T09:58:29.209Z,26.80
2019-05-21T10:01:05.419Z,28.77
2019-05-21T10:03:36.634Z,27.60
2019-05-21T10:06:05.323Z,28.65
2019-05-21T10:08:37.130Z,28.07
2019-05-21T10:11:04.863Z,27.37
2019-05-21T10:13:33.503Z,26.17
2019-05-21T10:16:06.234Z,25.48
2019-05-21T10:18:35.181Z,23.35
2019-05-21T10:21:03.973Z,28.65
2019-05-21T10:23:32.554Z,33.60
2019-05-21T10:26:01.035Z,38.63
2019-05-21T10:28:29.650Z,29.42
2019-05-21T10:30:58.163Z,26.95
2019-05-21T10:33:26.721Z,35.23
2019-05-21T10:35:56.151Z,28.12
2019-05-21T10:38:26.010Z,26.80
2019-05-21T10:40:54.677Z,26.95
2019-05-21T10:43:25.702Z,26.27
2019-05-21T10:45:54.207Z,41.20
2019-05-21T10:48:24.062Z,37.58
2019-05-21T10:50:53.183Z,28.90
2019-05-21T10:53:22.277Z,27.87
2019-05-21T10:55:52.218Z,23.80
2019-05-21T10:58:22.527Z,23.10
2019-05-21T11:00:52.773Z,26.42
2019-05-21T11:03:24.015Z,24.35
2019-05-21T11:06:09.590Z,25.77
2019-05-21T11:08:27.738Z,26.10
2019-05-21T11:10:57.365Z,22.75
2019-05-21T11:13:26.020Z,20.37
2019-05-21T11:15:54.623Z,19.52
2019-05-21T11:18:23.198Z,22.20
2019-05-21T11:20:51.957Z,26.07
2019-05-21T11:23:20.521Z,22.52
2019-05-21T11:25:49.139Z,19.35
2019-05-21T11:28:19.287Z,18.65
2019-05-21T11:30:47.825Z,18.85
2019-05-21T11:33:16.732Z,20.88
2019-05-21T11:35:47.649Z,19.87
2019-05-21T11:38:16.748Z,23.95
2019-05-21T11:40:50.784Z,17.17
2019-05-21T11:43:17.482Z,21.73
2019-05-21T11:45:46.079Z,19.87
2019-05-21T11:48:14.772Z,16.77
2019-05-21T11:50:44.930Z,19.52
2019-05-21T11:53:15.245Z,16.93
2019-05-21T11:55:45.242Z,14.45
2019-05-21T11:58:13.865Z,92.37
2019-05-21T12:00:42.499Z,14.50
2019-05-21T12:03:11.086Z,16.62
2019-05-21T12:05:39.678Z,14.33
2019-05-21T12:08:08.218Z,14.80
2019-05-21T12:10:37.823Z,14.50
2019-05-21T12:13:07.961Z,15.88
2019-05-21T12:15:36.709Z,14.13
2019-05-21T12:18:06.862Z,16.30
2019-05-21T12:20:37.597Z,13.30
2019-05-21T12:23:08.254Z,14.18
2019-05-21T12:25:36.892Z,15.93
2019-05-21T12:28:05.459Z,14.95
2019-05-21T12:30:34.140Z,13.60
2019-05-21T12:33:02.726Z,20.25
2019-05-21T12:35:31.286Z,10.50
2019-05-21T12:38:00.249Z,14.03
2019-05-21T12:40:30.535Z,8.33
2019-05-21T12:42:59.133Z,8.05
2019-05-21T12:45:27.762Z,12.10
2019-05-21T12:47:56.332Z,9.05
2019-05-21T12:50:27.588Z,10.28
2019-05-21T12:52:56.181Z,9.23
2019-05-21T12:55:25.263Z,9.78
2019-05-21T12:57:56.104Z,9.73
2019-05-21T13:00:30.948Z,12.65
2019-05-21T13:03:00.561Z,18.57
2019-05-21T13:05:29.080Z,17.73
2019-05-21T13:07:57.996Z,10.68
2019-05-21T13:10:27.149Z,11.35
2019-05-21T13:12:55.837Z,13.83
2019-05-21T13:15:24.585Z,17.35
2019-05-21T13:17:53.175Z,15.90
2019-05-21T13:20:22.403Z,13.95
2019-05-21T13:22:52.405Z,17.10
2019-05-21T13:25:20.956Z,20.70
2019-05-21T13:27:49.527Z,11.68
2019-05-21T13:30:20.708Z,10.55
2019-05-21T13:32:49.874Z,13.28
2019-05-21T13:35:18.440Z,22.25
2019-05-21T13:37:46.951Z,12.73
2019-05-21T13:40:17.815Z,17.80
2019-05-21T13:42:46.379Z,15.23
2019-05-21T13:45:18.347Z,11.50
2019-05-21T13:47:48.694Z,14.63
2019-05-21T13:50:17.560Z,10.85
2019-05-21T13:52:46.144Z,7.20
2019-05-21T13:55:14.829Z,9.70
2019-05-21T13:57:43.375Z,12.80
2019-05-21T14:00:14.778Z,8.45
2019-05-21T14:02:43.493Z,8.25
2019-05-21T14:05:13.517Z,13.03
2019-05-21T14:07:42.210Z,6.90
2019-05-21T14:10:15.788Z,6.80
2019-05-21T14:12:41.378Z,6.50
2019-05-21T14:15:10.282Z,8.23
2019-05-21T14:17:38.826Z,5.83
2019-05-21T14:20:08.377Z,7.03
2019-05-21T14:22:36.957Z,10.55
2019-05-21T14:25:09.350Z,11.40
2019-05-21T14:27:44.341Z,7.87
2019-05-21T14:30:10.337Z,7.50
2019-05-21T14:32:40.817Z,7.45
2019-05-21T14:35:09.411Z,6.85
2019-05-21T14:37:37.974Z,7.50
2019-05-21T14:40:08.546Z,10.08
2019-05-21T14:42:37.135Z,10.05
2019-05-21T14:45:06.744Z,9.23
2019-05-21T14:47:35.337Z,8.53
2019-05-21T14:50:06.347Z,19.35
2019-05-21T14:52:34.982Z,18.20
2019-05-21T14:55:07.895Z,18.45
2019-05-21T14:57:36.766Z,18.80
2019-05-21T15:00:13.571Z,17.12
2019-05-21T15:02:42.519Z,18.25
2019-05-21T15:05:11.555Z,15.32
2019-05-21T15:07:40.151Z,15.85
2019-05-21T15:10:09.139Z,14.53
2019-05-21T15:12:37.828Z,18.82
2019-05-21T15:15:07.321Z,14.80
2019-05-21T15:17:35.936Z,15.35
2019-05-21T15:20:08.280Z,15.70
2019-05-21T15:22:36.882Z,14.65
2019-05-21T15:25:07.213Z,20.88
2019-05-21T15:27:35.812Z,15.88
2019-05-21T15:30:06.111Z,15.58
2019-05-21T15:32:35.045Z,13.55
2019-05-21T15:35:04.436Z,14.23
2019-05-21T15:37:32.993Z,14.00
2019-05-21T15:40:01.633Z,20.62
2019-05-21T15:42:30.411Z,12.10
2019-05-21T15:44:58.928Z,11.73
2019-05-21T15:47:27.510Z,13.55
2019-05-21T15:49:56.703Z,12.28
2019-05-21T15:52:25.408Z,15.20
2019-05-21T15:54:54.015Z,12.82
2019-05-21T15:57:24.105Z,13.65
2019-05-21T15:59:52.672Z,13.05
2019-05-21T16:02:21.322Z,8.95
2019-05-21T16:04:50.209Z,9.20
2019-05-21T16:07:18.893Z,8.93
2019-05-21T16:09:47.453Z,9.40
2019-05-21T16:12:16.390Z,8.73
2019-05-21T16:14:44.984Z,8.30
2019-05-21T16:17:15.757Z,9.10
2019-05-21T16:19:46.361Z,9.30
2019-05-21T16:22:15.749Z,19.07
2019-05-21T16:24:45.567Z,8.10
2019-05-21T16:27:14.285Z,8.53
2019-05-21T16:29:42.779Z,10.23
2019-05-21T16:32:13.350Z,12.75
2019-05-21T16:34:41.862Z,11.00
2019-05-21T16:37:12.372Z,11.68
2019-05-21T16:39:40.959Z,11.80
2019-05-21T16:42:09.575Z,10.68
2019-05-21T16:44:38.158Z,13.25
2019-05-21T16:47:06.766Z,19.23
2019-05-21T16:49:35.336Z,13.32
2019-05-21T16:52:03.937Z,17.17
2019-05-21T16:54:33.563Z,17.60
2019-05-21T16:57:02.242Z,17.20
2019-05-21T16:59:33.048Z,16.80
2019-05-21T17:02:04.609Z,17.30
2019-05-21T17:04:33.201Z,16.75
2019-05-21T17:07:01.790Z,25.77
2019-05-21T17:09:31.492Z,14.30
2019-05-21T17:12:02.799Z,18.80
2019-05-21T17:14:32.954Z,17.17
2019-05-21T17:17:02.832Z,15.40
2019-05-21T17:19:31.396Z,13.78
2019-05-21T17:21:59.891Z,16.73
2019-05-21T17:24:28.553Z,16.42
2019-05-21T17:26:57.047Z,14.73
2019-05-21T17:29:25.640Z,16.23
2019-05-21T17:31:55.968Z,17.67
2019-05-21T17:34:24.540Z,14.70
2019-05-21T17:36:54.687Z,17.77
2019-05-21T17:39:23.179Z,16.93
2019-05-21T17:41:52.675Z,13.85
2019-05-21T17:44:26.642Z,35.13
2019-05-21T17:46:55.788Z,12.90
2019-05-21T17:49:24.469Z,15.30
2019-05-21T17:51:53.294Z,14.70
2019-05-21T17:54:21.806Z,12.37
2019-05-21T17:56:50.719Z,14.47
2019-05-21T17:59:20.477Z,10.70
2019-05-21T18:01:50.665Z,11.88
2019-05-21T18:04:19.996Z,10.03
2019-05-21T18:06:48.588Z,8.00
2019-05-21T18:09:19.229Z,8.85
2019-05-21T18:11:57.307Z,8.15
2019-05-21T18:14:25.976Z,10.48
2019-05-21T18:16:56.338Z,17.55
2019-05-21T18:19:25.068Z,9.23
2019-05-21T18:21:53.616Z,10.72
2019-05-21T18:24:24.055Z,8.78
2019-05-21T18:26:52.678Z,8.53
2019-05-21T18:29:21.498Z,9.58
2019-05-21T18:31:51.541Z,7.92
2019-05-21T18:34:20.185Z,7.90
2019-05-21T18:36:49.299Z,7.87
2019-05-21T18:39:18.642Z,10.40
2019-05-21T18:41:47.243Z,10.05
2019-05-21T18:44:18.267Z,10.90
2019-05-21T18:46:47.797Z,10.78
2019-05-21T18:49:17.353Z,10.43
2019-05-21T18:51:46.902Z,11.63
2019-05-21T18:54:16.629Z,10.85
2019-05-21T18:56:45.165Z,10.08
2019-05-21T18:59:13.972Z,9.85
2019-05-21T19:01:42.504Z,11.88
2019-05-21T19:04:11.058Z,10.58
2019-05-21T19:06:40.203Z,13.25
2019-05-21T19:09:09.339Z,11.38
2019-05-21T19:11:37.929Z,11.78
2019-05-21T19:14:06.663Z,13.18
2019-05-21T19:16:35.217Z,18.92
2019-05-21T19:19:03.810Z,11.68
2019-05-21T19:21:33.672Z,16.80
2019-05-21T19:24:03.851Z,15.27
2019-05-21T19:26:32.323Z,19.12
2019-05-21T19:29:01.063Z,20.27
2019-05-21T19:31:31.096Z,23.42
2019-05-21T19:34:01.250Z,22.70
2019-05-21T19:36:30.871Z,19.92
2019-05-21T19:39:01.085Z,22.58
2019-05-21T19:41:32.475Z,26.48
2019-05-21T19:44:01.459Z,21.42
2019-05-21T19:46:30.181Z,21.52
2019-05-21T19:48:58.767Z,21.07
2019-05-21T19:51:28.353Z,20.32
2019-05-21T19:53:56.903Z,23.12
2019-05-21T19:56:26.722Z,23.57
2019-05-21T19:58:55.696Z,21.37
2019-05-21T20:01:27.203Z,20.40
2019-05-21T20:03:56.999Z,22.32
2019-05-21T20:06:26.181Z,19.73
2019-05-21T20:08:55.507Z,19.03
2019-05-21T20:11:25.814Z,23.92
2019-05-21T20:13:55.894Z,23.40
2019-05-21T20:16:25.686Z,28.27
2019-05-21T20:18:56.176Z,31.97
2019-05-21T20:21:25.421Z,29.30
2019-05-21T20:23:54.484Z,32.70
2019-05-21T20:26:24.887Z,32.88
2019-05-21T20:28:58.083Z,37.08
2019-05-21T20:31:30.023Z,42.65
2019-05-21T20:33:59.038Z,42.75
2019-05-21T20:36:29.432Z,49.03
2019-05-21T20:39:00.393Z,43.70
2019-05-21T20:41:30.733Z,46.30
2019-05-21T20:44:01.236Z,51.55
2019-05-21T20:46:29.854Z,54.67
2019-05-21T20:48:58.479Z,53.25
2019-05-21T20:51:27.426Z,52.75
2019-05-21T20:53:56.249Z,53.55
2019-05-21T20:56:24.846Z,48.40
2019-05-21T20:58:53.440Z,49.67
2019-05-21T21:01:22.040Z,54.08
2019-05-21T21:03:50.908Z,50.10
2019-05-21T21:06:34.219Z,47.62
2019-05-21T21:08:49.906Z,49.67
2019-05-21T21:11:18.937Z,47.65
2019-05-21T21:13:48.430Z,53.40
2019-05-21T21:16:19.168Z,48.13
2019-05-21T21:18:48.796Z,46.13
2019-05-21T21:21:17.651Z,47.20
2019-05-21T21:23:46.699Z,49.33
2019-05-21T21:26:16.009Z,41.83
2019-05-21T21:28:44.721Z,39.27
2019-05-21T21:31:13.333Z,36.95
2019-05-21T21:33:42.334Z,29.87
2019-05-21T21:36:11.171Z,35.70
2019-05-21T21:38:40.146Z,33.38
2019-05-21T21:41:10.063Z,34.03
2019-05-21T21:43:39.325Z,30.52
2019-05-21T21:46:08.075Z,29.37
2019-05-21T21:48:37.287Z,36.30
2019-05-21T21:51:06.325Z,33.95
2019-05-21T21:53:35.783Z,32.70
2019-05-21T21:56:04.566Z,33.08
2019-05-21T21:58:33.148Z,39.20
2019-05-21T22:01:27.246Z,34.27
2019-05-21T22:03:59.625Z,36.60
2019-05-21T22:06:30.117Z,36.40
2019-05-21T22:08:59.637Z,33.80
2019-05-21T22:11:28.210Z,36.23
2019-05-21T22:13:57.184Z,36.33
2019-05-21T22:16:25.909Z,36.50
2019-05-21T22:18:54.805Z,117.73
2019-05-21T22:21:24.027Z,31.17
2019-05-21T22:23:52.899Z,29.65
2019-05-21T22:26:22.829Z,32.25
2019-05-21T22:28:51.480Z,30.48
2019-05-21T22:31:20.057Z,30.32
2019-05-21T22:33:48.666Z,27.37
2019-05-21T22:36:17.426Z,26.85
2019-05-21T22:38:45.988Z,27.00
2019-05-21T22:41:14.598Z,28.32
2019-05-21T22:43:43.335Z,28.80
2019-05-21T22:46:11.861Z,36.08
2019-05-21T22:48:40.410Z,34.43
2019-05-21T22:51:09.128Z,32.40
2019-05-21T22:53:37.642Z,32.30
2019-05-21T22:56:06.196Z,37.75
2019-05-21T22:58:34.781Z,34.95
2019-05-21T23:01:05.084Z,35.60
2019-05-21T23:03:33.687Z,39.70
2019-05-21T23:06:02.232Z,42.27
2019-05-21T23:08:30.774Z,46.08
2019-05-21T23:10:59.471Z,48.65
2019-05-21T23:13:28.048Z,48.70
2019-05-21T23:15:58.695Z,44.40
2019-05-21T23:18:27.679Z,42.88
2019-05-21T23:20:57.199Z,39.27
2019-05-21T23:23:26.891Z,43.55
2019-05-21T23:25:58.205Z,42.48
2019-05-21T23:28:27.044Z,33.73
2019-05-21T23:30:55.627Z,35.13
2019-05-21T23:33:25.460Z,35.17
2019-05-21T23:35:54.081Z,38.83
2019-05-21T23:38:23.455Z,42.98
2019-05-21T23:40:52.265Z,41.02
2019-05-21T23:43:21.226Z,36.98
2019-05-21T23:45:50.274Z,43.48
2019-05-21T23:48:19.555Z,43.95
2019-05-21T23:50:48.530Z,47.40
2019-05-21T23:53:17.218Z,50.20
2019-05-21T23:55:46.534Z,49.05
2019-05-21T23:58:15.244Z,44.80
